Time;durP1;ratioP1;P1;durP2;ratioP2;P2;SDS_P1;SDS_P2;PMS_P1;PMS_P2;Temp;Humidity;BMP_temperature;BMP_pressure;BME280_temperature;BME280_humidity;BME280_pressure;Samples;Min_cycle;Max_cycle;Signal;HPM_P1;HPM_P2
2020/12/05 00:01:06;;;;;;;3.90;3.53;;;20.20;46.10;;;;;;5058562;28;20488;-68
2020/12/05 00:03:32;;;;;;;4.10;3.30;;;20.10;46.00;;;;;;5081308;28;20548;-68
2020/12/05 00:05:58;;;;;;;4.00;3.80;;;20.10;46.00;;;;;;5069937;28;20491;-69
2020/12/05 00:08:24;;;;;;;4.00;3.63;;;20.10;46.20;;;;;;5063567;28;20480;-70
2020/12/05 00:10:51;;;;;;;4.20;3.83;;;20.10;46.20;;;;;;5062470;28;20486;-69
2020/12/05 00:13:18;;;;;;;4.20;3.90;;;20.10;46.20;;;;;;5050857;28;20511;-68
2020/12/05 00:15:44;;;;;;;4.43;4.03;;;20.00;46.30;;;;;;5071453;28;20538;-69
2020/12/05 00:18:10;;;;;;;4.97;4.57;;;20.00;46.40;;;;;;5079949;28;20543;-69
2020/12/05 00:20:36;;;;;;;5.50;4.60;;;20.00;46.50;;;;;;5070911;28;20485;-69
2020/12/05 00:23:02;;;;;;;5.60;4.10;;;19.90;46.50;;;;;;5068076;28;20539;-70
2020/12/05 00:25:28;;;;;;;3.23;2.93;;;19.90;46.50;;;;;;5070996;28;21078;-70
2020/12/05 00:27:54;;;;;;;3.70;3.40;;;19.90;46.50;;;;;;5068232;28;20486;-69
2020/12/05 00:30:21;;;;;;;4.93;4.63;;;19.80;46.40;;;;;;5068670;28;20489;-70
2020/12/05 00:32:47;;;;;;;8.10;4.70;;;19.90;46.50;;;;;;5051777;28;20489;-70
2020/12/05 00:35:14;;;;;;;4.60;4.20;;;19.90;46.50;;;;;;5072772;28;20555;-70
2020/12/05 00:37:40;;;;;;;3.47;3.20;;;19.80;46.40;;;;;;5063990;28;20489;-69
2020/12/05 00:40:06;;;;;;;4.10;3.80;;;19.80;46.40;;;;;;5069078;28;20485;-68
2020/12/05 00:42:32;;;;;;;4.37;3.97;;;19.80;46.40;;;;;;5072087;28;20489;-69
2020/12/05 00:44:58;;;;;;;4.83;4.40;;;19.80;46.50;;;;;;5072906;28;20520;-70
2020/12/05 00:47:28;;;;;;;4.30;3.90;;;19.80;46.50;;;;;;5070827;28;21074;-69
2020/12/05 00:49:54;;;;;;;5.10;4.70;;;19.90;47.30;;;;;;5067519;28;20566;-70
2020/12/05 00:52:22;;;;;;;5.00;4.60;;;19.90;46.60;;;;;;5069189;28;20523;-69
2020/12/05 00:54:48;;;;;;;4.30;3.87;;;20.00;46.80;;;;;;5068909;28;20857;-70
2020/12/05 00:57:14;;;;;;;3.47;3.17;;;19.90;46.20;;;;;;5072400;28;20492;-68
2020/12/05 00:59:40;;;;;;;5.00;4.30;;;20.00;46.40;;;;;;5050523;28;20484;-68
2020/12/05 01:02:06;;;;;;;5.03;3.60;;;20.00;46.30;;;;;;5055065;28;20485;-68
2020/12/05 01:04:33;;;;;;;4.20;3.90;;;19.90;46.20;;;;;;5070046;28;21201;-68
2020/12/05 01:06:59;;;;;;;4.00;3.70;;;19.90;46.20;;;;;;5069371;28;20541;-70
2020/12/05 01:09:25;;;;;;;4.63;4.23;;;19.90;46.30;;;;;;5055230;28;20538;-68
2020/12/05 01:11:52;;;;;;;4.13;3.80;;;19.90;46.40;;;;;;5081231;28;21047;-70
2020/12/05 01:14:18;;;;;;;4.17;3.77;;;19.90;46.40;;;;;;5072325;28;20582;-70
2020/12/05 01:16:45;;;;;;;6.23;4.03;;;19.90;46.50;;;;;;5073738;28;20534;-71
2020/12/05 01:19:11;;;;;;;4.90;4.50;;;19.90;46.50;;;;;;5071472;28;21117;-69
2020/12/05 01:21:38;;;;;;;4.77;4.37;;;19.80;46.40;;;;;;5072173;28;21102;-68
2020/12/05 01:24:04;;;;;;;4.97;4.13;;;19.80;46.40;;;;;;5071608;28;20489;-69
2020/12/05 01:26:30;;;;;;;4.90;4.47;;;19.80;46.50;;;;;;5074473;28;20492;-69
2020/12/05 01:28:56;;;;;;;4.70;4.30;;;19.80;46.40;;;;;;5070983;28;20477;-68
2020/12/05 01:31:22;;;;;;;4.20;3.90;;;19.80;46.40;;;;;;5062520;28;20981;-69
2020/12/05 01:33:48;;;;;;;4.40;4.00;;;19.80;46.40;;;;;;5069250;28;20472;-71
2020/12/05 01:36:14;;;;;;;5.00;4.60;;;19.80;46.50;;;;;;5062468;28;20545;-70
2020/12/05 01:38:41;;;;;;;4.87;4.43;;;19.80;46.40;;;;;;5046989;28;20482;-69
2020/12/05 01:41:07;;;;;;;4.90;4.20;;;19.80;46.40;;;;;;5059148;28;21049;-69
2020/12/05 01:43:33;;;;;;;4.07;3.83;;;19.80;46.40;;;;;;5035846;28;20543;-69
2020/12/05 01:45:59;;;;;;;4.33;3.93;;;19.80;46.40;;;;;;5034677;28;20497;-70
2020/12/05 01:48:25;;;;;;;5.07;4.60;;;19.90;46.50;;;;;;5032328;28;20489;-70
2020/12/05 01:50:53;;;;;;;4.67;4.37;;;19.90;47.10;;;;;;5050948;28;20486;-70
2020/12/05 01:53:19;;;;;;;4.80;4.50;;;19.90;46.50;;;;;;5023830;28;20477;-69
2020/12/05 01:55:46;;;;;;;4.77;4.40;;;19.90;46.50;;;;;;5004304;28;20474;-69
2020/12/05 01:58:13;;;;;;;4.83;4.43;;;19.90;46.40;;;;;;5048761;28;20470;-71
2020/12/05 02:00:39;;;;;;;4.20;3.90;;;19.90;46.40;;;;;;5049992;28;20891;-71
2020/12/05 02:03:05;;;;;;;5.13;4.77;;;19.90;46.20;;;;;;5046283;28;21624;-70
2020/12/05 02:05:39;;;;;;;6.53;5.90;;;19.90;46.30;;;;;;5061261;28;20512;-71
2020/12/05 02:08:08;;;;;;;4.93;4.53;;;19.90;46.30;;;;;;5043338;28;20548;-70
2020/12/05 02:10:37;;;;;;;4.80;4.37;;;19.90;46.20;;;;;;5043063;28;20470;-70
2020/12/05 02:13:08;;;;;;;4.37;4.03;;;19.90;46.20;;;;;;5058917;28;20468;-68
2020/12/05 02:15:34;;;;;;;4.50;4.10;;;19.90;46.20;;;;;;5040798;28;21273;-69
2020/12/05 02:18:02;;;;;;;6.07;4.40;;;19.90;46.20;;;;;;5052045;28;20855;-70
2020/12/05 02:20:29;;;;;;;5.00;4.50;;;19.90;46.20;;;;;;5030206;28;20552;-69
2020/12/05 02:22:55;;;;;;;5.30;4.90;;;20.00;46.30;;;;;;5040499;28;20511;-68
2020/12/05 02:25:22;;;;;;;5.80;4.30;;;19.90;46.10;;;;;;5040321;28;20497;-67
2020/12/05 02:27:48;;;;;;;4.63;4.33;;;19.90;46.10;;;;;;5051263;28;20575;-69
2020/12/05 02:30:14;;;;;;;4.33;4.03;;;19.90;47.00;;;;;;5034900;28;20535;-69
2020/12/05 02:32:40;;;;;;;4.37;3.97;;;19.90;46.10;;;;;;5050312;28;20539;-70
2020/12/05 02:35:07;;;;;;;4.63;4.23;;;19.90;46.20;;;;;;5053075;28;21001;-69
2020/12/05 02:37:35;;;;;;;4.10;3.80;;;19.90;46.20;;;;;;5041477;28;20491;-69
2020/12/05 02:40:01;;;;;;;5.40;4.90;;;19.90;46.20;;;;;;5050799;28;20510;-69
2020/12/05 02:42:28;;;;;;;4.13;3.93;;;19.90;46.40;;;;;;5038946;28;20568;-68
2020/12/05 02:44:54;;;;;;;5.70;4.60;;;19.90;46.50;;;;;;5048339;28;20517;-69
2020/12/05 02:47:21;;;;;;;5.37;4.47;;;19.80;46.40;;;;;;5035153;28;20481;-70
2020/12/05 02:49:47;;;;;;;6.00;4.83;;;19.80;46.40;;;;;;5038953;28;21013;-69
2020/12/05 02:52:13;;;;;;;4.73;4.30;;;19.80;46.40;;;;;;5049422;28;20997;-71
2020/12/05 02:54:39;;;;;;;6.87;5.03;;;19.80;46.40;;;;;;5051229;28;21615;-70
2020/12/05 02:57:05;;;;;;;4.17;3.77;;;19.90;46.50;;;;;;5030550;28;20486;-69
2020/12/05 02:59:33;;;;;;;6.53;4.83;;;19.90;46.50;;;;;;5035953;28;20488;-69
2020/12/05 03:01:59;;;;;;;5.37;4.87;;;19.90;46.30;;;;;;5053706;28;21241;-69
2020/12/05 03:04:25;;;;;;;6.10;4.77;;;19.90;46.50;;;;;;5042762;28;20493;-68
2020/12/05 03:06:51;;;;;;;4.20;3.90;;;19.90;46.20;;;;;;5025100;28;20498;-68
2020/12/05 03:09:17;;;;;;;4.50;4.10;;;19.90;46.10;;;;;;5041893;28;20488;-69
2020/12/05 03:11:43;;;;;;;4.93;4.43;;;19.90;46.10;;;;;;5001154;28;20490;-69
2020/12/05 03:14:09;;;;;;;4.30;4.00;;;19.90;46.10;;;;;;5031920;28;20509;-69
2020/12/05 03:16:36;;;;;;;5.57;4.70;;;19.90;46.10;;;;;;5051500;28;20473;-69
2020/12/05 03:19:03;;;;;;;4.37;3.97;;;19.90;46.10;;;;;;5037354;28;20483;-69
2020/12/05 03:21:29;;;;;;;5.00;4.47;;;19.90;46.10;;;;;;5016046;28;20490;-70
2020/12/05 03:23:55;;;;;;;4.87;4.47;;;19.90;46.20;;;;;;5035012;28;20497;-70
2020/12/05 03:26:21;;;;;;;4.80;4.40;;;19.90;46.20;;;;;;5035377;28;20489;-68
2020/12/05 03:28:47;;;;;;;4.77;4.23;;;19.90;46.30;;;;;;5048718;28;20486;-69
2020/12/05 03:31:23;;;;;;;5.43;5.03;;;19.90;46.40;;;;;;5028261;28;20485;-70
2020/12/05 03:33:50;;;;;;;5.40;5.00;;;19.80;46.30;;;;;;5036779;28;20473;-69
2020/12/05 03:36:17;;;;;;;4.47;4.27;;;19.80;46.40;;;;;;5043543;28;21491;-69
2020/12/05 03:38:46;;;;;;;5.73;5.00;;;19.80;46.40;;;;;;5028208;28;21018;-69
2020/12/05 03:41:13;;;;;;;5.57;5.03;;;19.80;46.40;;;;;;5036182;28;20583;-68
2020/12/05 03:43:39;;;;;;;6.60;5.47;;;19.90;46.50;;;;;;5027343;28;20512;-69
2020/12/05 03:46:05;;;;;;;4.53;4.23;;;19.90;46.30;;;;;;5040147;28;20493;-69
2020/12/05 03:48:31;;;;;;;4.40;4.10;;;19.90;46.30;;;;;;5038829;28;21523;-70
2020/12/05 03:50:58;;;;;;;5.80;4.80;;;19.90;46.20;;;;;;5036616;28;21493;-68
2020/12/05 03:53:24;;;;;;;6.97;5.30;;;19.90;46.20;;;;;;5038394;28;21009;-69
2020/12/05 03:55:52;;;;;;;5.47;5.00;;;19.90;46.20;;;;;;5018758;28;20485;-68
2020/12/05 03:58:19;;;;;;;4.93;4.53;;;19.90;46.10;;;;;;5025156;28;20482;-68
2020/12/05 04:00:45;;;;;;;5.47;4.97;;;19.90;46.20;;;;;;5026402;28;20485;-69
2020/12/05 04:03:11;;;;;;;6.33;5.03;;;19.90;46.20;;;;;;5040576;28;21163;-69
2020/12/05 04:05:37;;;;;;;4.57;4.27;;;19.90;46.20;;;;;;5026928;28;21971;-69
2020/12/05 04:08:04;;;;;;;5.00;4.63;;;19.90;46.20;;;;;;5026961;28;20856;-68
2020/12/05 04:10:30;;;;;;;5.47;4.53;;;19.90;46.20;;;;;;5037008;28;20474;-69
2020/12/05 04:12:56;;;;;;;5.33;4.83;;;19.90;46.20;;;;;;5036533;28;20479;-70
2020/12/05 04:15:23;;;;;;;6.20;5.03;;;19.90;46.10;;;;;;5035989;28;20498;-69
2020/12/05 04:17:49;;;;;;;6.33;5.30;;;20.00;46.10;;;;;;5029809;28;20470;-70
2020/12/05 04:20:15;;;;;;;5.10;4.53;;;19.90;46.00;;;;;;5034712;28;20489;-69
2020/12/05 04:22:41;;;;;;;4.30;4.00;;;20.00;46.10;;;;;;5042076;28;20481;-70
2020/12/05 04:25:08;;;;;;;5.43;5.00;;;19.90;46.00;;;;;;5039957;28;20553;-69
2020/12/05 04:27:34;;;;;;;4.90;4.50;;;19.90;46.10;;;;;;5039636;28;20889;-69
2020/12/05 04:30:00;;;;;;;5.40;5.00;;;19.90;46.10;;;;;;5026951;28;20832;-71
2020/12/05 04:32:26;;;;;;;7.00;5.50;;;19.90;46.10;;;;;;5015161;28;20881;-70
2020/12/05 04:34:52;;;;;;;5.63;5.07;;;19.90;46.20;;;;;;5028994;28;20504;-69
2020/12/05 04:37:19;;;;;;;5.67;4.80;;;19.90;46.20;;;;;;5035034;28;20490;-69
2020/12/05 04:39:45;;;;;;;5.70;4.70;;;19.80;46.20;;;;;;5049340;28;20474;-69
2020/12/05 04:42:12;;;;;;;5.93;5.40;;;19.80;46.20;;;;;;5031232;28;20494;-70
2020/12/05 04:44:38;;;;;;;6.60;5.10;;;19.90;46.20;;;;;;5027533;28;20481;-68
2020/12/05 04:47:04;;;;;;;6.57;5.07;;;19.90;46.20;;;;;;5030332;28;20492;-67
2020/12/05 04:49:30;;;;;;;4.73;4.33;;;19.90;46.20;;;;;;5019909;28;20501;-68
2020/12/05 04:51:58;;;;;;;4.87;4.47;;;19.90;46.20;;;;;;5014562;28;20482;-68
2020/12/05 04:54:25;;;;;;;6.30;5.70;;;19.90;46.10;;;;;;5046959;28;20867;-68
2020/12/05 04:56:51;;;;;;;5.57;5.07;;;19.90;46.20;;;;;;5031043;28;20477;-69
2020/12/05 04:59:18;;;;;;;5.63;5.10;;;19.90;46.10;;;;;;5040100;28;21028;-70
2020/12/05 05:01:44;;;;;;;5.67;5.27;;;19.90;46.20;;;;;;5053638;28;20547;-68
2020/12/05 05:04:10;;;;;;;6.07;5.20;;;19.90;46.20;;;;;;5033076;28;20489;-70
2020/12/05 05:06:36;;;;;;;6.57;5.60;;;19.80;46.10;;;;;;5033759;28;21174;-70
2020/12/05 05:09:02;;;;;;;4.70;4.40;;;19.90;46.20;;;;;;5054336;28;20490;-68
2020/12/05 05:11:29;;;;;;;5.97;5.47;;;19.90;46.30;;;;;;5057606;28;20507;-69
2020/12/05 05:13:58;;;;;;;6.57;5.97;;;19.80;46.30;;;;;;5045143;28;20995;-69
2020/12/05 05:16:27;;;;;;;5.93;4.70;;;19.80;46.40;;;;;;5058948;28;20484;-71
2020/12/05 05:18:53;;;;;;;6.43;5.47;;;19.80;46.30;;;;;;5038682;28;20581;-68
2020/12/05 05:21:38;;;;;;;5.97;5.47;;;19.80;46.30;;;;;;5018469;28;20473;-71
2020/12/05 05:24:10;;;;;;;5.40;5.00;;;19.90;46.40;;;;;;5039014;28;20540;-68
2020/12/05 05:26:36;;;;;;;6.60;6.00;;;19.80;46.20;;;;;;5029742;28;20480;-70
2020/12/05 05:29:03;;;;;;;6.07;5.47;;;19.90;46.30;;;;;;5051961;28;20589;-69
2020/12/05 05:31:44;;;;;;;7.10;5.50;;;19.90;46.30;;;;;;5043689;28;20507;-69
2020/12/05 05:34:18;;;;;;;5.73;5.20;;;19.90;46.20;;;;;;5071977;28;20480;-68
2020/12/05 05:36:45;;;;;;;5.83;5.40;;;19.90;46.20;;;;;;5054538;28;21030;-69
2020/12/05 05:39:13;;;;;;;6.33;5.57;;;19.90;46.20;;;;;;5039551;28;20492;-70
2020/12/05 05:41:39;;;;;;;6.33;5.53;;;19.90;46.20;;;;;;5064252;28;20579;-70
2020/12/05 05:44:06;;;;;;;5.40;5.00;;;19.90;46.30;;;;;;5059788;28;20516;-68
2020/12/05 05:46:34;;;;;;;7.07;5.37;;;19.90;46.40;;;;;;5069434;28;20511;-69
2020/12/05 05:49:00;;;;;;;5.90;5.30;;;19.80;46.30;;;;;;5020683;28;20486;-69
2020/12/05 05:51:36;;;;;;;6.30;5.80;;;19.80;46.40;;;;;;5048091;28;20496;-68
2020/12/05 05:54:24;;;;;;;7.00;5.73;;;19.80;46.40;;;;;;5033816;28;20491;-69
2020/12/05 05:56:54;;;;;;;5.90;5.33;;;19.80;46.40;;;;;;5026990;28;20566;-69
2020/12/05 05:59:21;;;;;;;5.63;5.23;;;19.80;46.40;;;;;;5016715;28;20492;-67
2020/12/05 06:01:49;;;;;;;6.00;5.43;;;19.70;46.40;;;;;;5022149;28;20518;-69
2020/12/05 06:04:15;;;;;;;6.60;5.03;;;19.70;46.40;;;;;;5030420;28;20470;-70
2020/12/05 06:06:41;;;;;;;6.23;5.63;;;19.70;46.40;;;;;;5020507;28;22673;-69
2020/12/05 06:09:07;;;;;;;6.23;5.30;;;19.60;46.40;;;;;;5050777;28;20570;-67
2020/12/05 06:11:34;;;;;;;5.40;4.87;;;19.60;46.60;;;;;;5037918;28;20555;-69
2020/12/05 06:14:01;;;;;;;9.77;5.50;;;19.50;46.60;;;;;;5045305;28;20496;-68
2020/12/05 06:16:27;;;;;;;6.40;5.80;;;19.50;46.80;;;;;;5049985;28;21091;-69
2020/12/05 06:18:54;;;;;;;5.50;5.00;;;19.50;46.70;;;;;;5038550;28;20956;-68
2020/12/05 06:21:20;;;;;;;6.23;5.60;;;19.50;46.80;;;;;;5034842;28;20551;-69
2020/12/05 06:23:49;;;;;;;6.70;6.10;;;19.60;46.70;;;;;;5079850;28;20469;-69
2020/12/05 06:26:18;;;;;;;5.87;5.27;;;19.60;46.60;;;;;;5071807;28;20465;-70
2020/12/05 06:28:44;;;;;;;6.90;6.20;;;19.70;46.60;;;;;;5069450;28;20550;-69
2020/12/05 06:31:11;;;;;;;6.83;5.77;;;19.70;46.50;;;;;;5070838;28;20477;-69
2020/12/05 06:33:38;;;;;;;6.33;5.73;;;19.60;46.60;;;;;;5071487;28;20515;-69
2020/12/05 06:36:34;;;;;;;5.70;5.20;;;19.60;46.60;;;;;;5072837;28;20508;-70
2020/12/05 06:39:10;;;;;;;6.73;5.63;;;19.60;46.50;;;;;;5071717;28;20514;-68
2020/12/05 06:41:37;;;;;;;5.40;4.90;;;19.60;46.50;;;;;;5072068;28;21019;-69
2020/12/05 06:44:13;;;;;;;5.73;5.13;;;19.70;46.60;;;;;;5069867;28;20481;-69
2020/12/05 06:46:56;;;;;;;5.90;5.43;;;19.70;46.50;;;;;;5036483;28;20481;-69
2020/12/05 06:49:45;;;;;;;7.30;5.33;;;19.70;46.40;;;;;;5057822;28;20511;-70
2020/12/05 06:52:40;;;;;;;5.80;4.93;;;19.70;46.40;;;;;;5073399;28;20483;-70
2020/12/05 06:55:25;;;;;;;6.70;5.93;;;19.70;46.50;;;;;;5074166;28;20465;-69
2020/12/05 06:58:00;;;;;;;5.40;4.93;;;19.70;46.40;;;;;;5028925;28;20482;-69
2020/12/05 07:00:26;;;;;;;6.57;5.87;;;19.70;46.40;;;;;;5050323;28;20575;-68
2020/12/05 07:02:53;;;;;;;7.03;5.60;;;19.70;46.40;;;;;;5050129;28;20846;-69
2020/12/05 07:05:27;;;;;;;6.20;5.07;;;19.70;46.40;;;;;;5037726;28;20513;-69
2020/12/05 07:07:54;;;;;;;5.93;5.37;;;19.80;46.50;;;;;;5043981;28;20569;-69
2020/12/05 07:10:21;;;;;;;5.77;5.27;;;19.80;46.40;;;;;;5051413;28;20593;-68
2020/12/05 07:12:47;;;;;;;8.80;6.70;;;19.90;46.40;;;;;;5035067;28;20850;-69
2020/12/05 07:15:20;;;;;;;6.90;6.03;;;19.90;46.30;;;;;;5005225;28;20485;-69
2020/12/05 07:17:46;;;;;;;5.73;5.23;;;20.00;46.20;;;;;;5042695;28;20523;-69
2020/12/05 07:20:12;;;;;;;7.03;6.33;;;20.00;46.00;;;;;;5027220;28;20486;-68
2020/12/05 07:22:38;;;;;;;5.90;4.50;;;20.10;46.10;;;;;;5034773;28;20932;-69
2020/12/05 07:25:04;;;;;;;5.97;5.27;;;20.10;46.10;;;;;;5025760;28;20490;-69
2020/12/05 07:27:31;;;;;;;6.60;5.73;;;20.10;46.20;;;;;;5039550;28;20978;-70
2020/12/05 07:29:57;;;;;;;6.33;5.37;;;20.10;46.20;;;;;;5022187;28;20485;-70
2020/12/05 07:32:31;;;;;;;6.00;5.40;;;20.10;46.20;;;;;;5012108;28;20499;-70
2020/12/05 07:34:57;;;;;;;5.67;5.13;;;20.00;46.10;;;;;;5041269;28;20515;-69
2020/12/05 07:37:25;;;;;;;4.97;4.50;;;20.00;46.20;;;;;;5015077;28;20991;-69
2020/12/05 07:39:51;;;;;;;6.30;5.70;;;20.00;46.30;;;;;;5016732;28;20981;-69
2020/12/05 07:42:17;;;;;;;6.30;5.70;;;20.00;46.40;;;;;;5020071;28;20552;-70
2020/12/05 07:44:44;;;;;;;5.80;5.33;;;20.00;47.10;;;;;;5066314;28;20477;-70
2020/12/05 07:47:17;;;;;;;5.93;4.83;;;20.00;46.30;;;;;;5073705;28;21062;-70
2020/12/05 07:49:49;;;;;;;5.80;5.30;;;20.10;46.30;;;;;;5036453;28;21453;-71
2020/12/05 07:52:18;;;;;;;6.83;6.13;;;20.10;46.20;;;;;;5064394;28;20896;-70
2020/12/05 07:54:50;;;;;;;7.30;5.63;;;20.10;46.10;;;;;;5082568;28;21092;-69
2020/12/05 07:57:16;;;;;;;5.40;4.87;;;20.10;46.00;;;;;;5041361;28;20471;-69
2020/12/05 07:59:44;;;;;;;6.20;5.70;;;20.10;45.90;;;;;;5051996;28;20461;-70
2020/12/05 08:02:13;;;;;;;6.80;5.43;;;20.10;46.00;;;;;;5039654;28;20490;-71
2020/12/05 08:04:42;;;;;;;5.93;5.33;;;20.20;46.00;;;;;;5036269;28;20547;-70
2020/12/05 08:07:21;;;;;;;5.23;4.80;;;20.20;45.90;;;;;;5047938;28;21646;-70
2020/12/05 08:09:47;;;;;;;7.30;5.37;;;20.10;45.90;;;;;;5054782;28;20574;-69
2020/12/05 08:12:14;;;;;;;7.70;6.03;;;20.10;45.90;;;;;;5046951;28;20478;-70
2020/12/05 08:14:42;;;;;;;5.23;4.83;;;20.10;46.00;;;;;;5041648;28;20548;-70
2020/12/05 08:17:09;;;;;;;7.93;5.90;;;20.10;46.00;;;;;;5038703;28;20925;-69
2020/12/05 08:19:38;;;;;;;6.40;5.90;;;20.10;46.10;;;;;;5036537;28;20474;-69
2020/12/05 08:22:08;;;;;;;6.27;5.47;;;20.00;46.30;;;;;;5023100;28;20583;-69
2020/12/05 08:24:35;;;;;;;5.73;5.23;;;20.00;46.20;;;;;;5006651;28;20518;-68
2020/12/05 08:27:01;;;;;;;5.93;5.20;;;20.00;46.30;;;;;;5036948;28;20521;-69
2020/12/05 08:29:27;;;;;;;7.03;5.20;;;20.00;46.20;;;;;;5023904;28;20523;-67
2020/12/05 08:31:53;;;;;;;8.53;6.27;;;20.00;46.20;;;;;;5060154;28;21068;-69
2020/12/05 08:34:29;;;;;;;7.10;5.53;;;20.10;46.30;;;;;;5073637;28;20497;-68
2020/12/05 08:36:55;;;;;;;6.33;5.73;;;20.10;46.30;;;;;;5066377;28;21466;-68
2020/12/05 08:39:21;;;;;;;7.07;5.90;;;20.10;46.20;;;;;;5070698;28;20477;-68
2020/12/05 08:41:48;;;;;;;6.17;5.57;;;20.10;46.20;;;;;;5047138;28;20586;-69
2020/12/05 08:44:15;;;;;;;5.70;4.83;;;20.00;46.20;;;;;;5074127;28;20550;-69
2020/12/05 08:46:41;;;;;;;5.77;5.03;;;20.10;46.20;;;;;;5017550;28;20551;-69
2020/12/05 08:49:15;;;;;;;6.83;4.90;;;20.10;46.20;;;;;;5047585;28;20482;-67
2020/12/05 08:51:46;;;;;;;6.10;5.60;;;20.10;46.10;;;;;;5034916;28;21066;-68
2020/12/05 08:54:13;;;;;;;6.30;5.70;;;20.10;46.20;;;;;;5041259;28;20502;-70
2020/12/05 08:56:39;;;;;;;7.70;5.70;;;20.10;46.10;;;;;;5039022;28;20465;-69
2020/12/05 08:59:05;;;;;;;6.67;5.67;;;20.10;46.00;;;;;;5016375;28;20544;-69
2020/12/05 09:01:41;;;;;;;5.10;4.70;;;20.10;46.00;;;;;;5021236;28;20489;-68
2020/12/05 09:04:07;;;;;;;6.40;5.53;;;20.10;46.10;;;;;;5027948;28;20493;-70
2020/12/05 09:06:33;;;;;;;6.00;5.50;;;20.10;46.00;;;;;;5012900;28;20486;-69
2020/12/05 09:09:00;;;;;;;7.20;5.43;;;20.20;46.10;;;;;;5032510;28;20520;-70
2020/12/05 09:11:26;;;;;;;7.03;5.50;;;20.10;46.00;;;;;;5049875;28;20540;-68
2020/12/05 09:13:52;;;;;;;8.37;5.13;;;20.10;46.10;;;;;;5033910;28;20494;-68
2020/12/05 09:16:19;;;;;;;6.90;6.23;;;20.10;46.20;;;;;;5029285;28;20482;-68
2020/12/05 09:18:45;;;;;;;7.57;5.83;;;20.10;46.20;;;;;;5046753;28;20509;-70
2020/12/05 09:21:13;;;;;;;10.77;6.33;;;20.10;46.20;;;;;;5060239;28;21519;-69
2020/12/05 09:23:39;;;;;;;7.30;6.20;;;20.20;46.10;;;;;;5043820;28;20527;-69
2020/12/05 09:26:06;;;;;;;6.40;5.80;;;20.20;46.30;;;;;;5059226;28;20552;-68
2020/12/05 09:28:32;;;;;;;6.70;5.80;;;20.30;46.00;;;;;;5041596;28;20479;-69
2020/12/05 09:31:00;;;;;;;5.80;5.27;;;20.30;45.90;;;;;;5057229;28;20549;-69
2020/12/05 09:33:26;;;;;;;8.70;5.50;;;20.30;45.80;;;;;;5055776;28;20497;-68
2020/12/05 09:35:52;;;;;;;5.70;5.17;;;20.20;45.80;;;;;;5065243;28;20581;-70
2020/12/05 09:38:18;;;;;;;7.70;5.77;;;20.20;45.80;;;;;;5049057;28;20492;-69
2020/12/05 09:40:44;;;;;;;6.13;5.57;;;20.20;45.80;;;;;;5046624;28;20526;-69
2020/12/05 09:43:12;;;;;;;6.30;5.70;;;20.20;45.80;;;;;;5056606;28;20477;-67
2020/12/05 09:45:39;;;;;;;6.33;5.73;;;20.20;45.90;;;;;;5068303;28;21058;-71
2020/12/05 09:48:05;;;;;;;7.00;6.30;;;20.10;45.80;;;;;;5063598;28;20465;-69
2020/12/05 09:50:31;;;;;;;7.53;6.77;;;20.10;45.90;;;;;;5056295;28;21156;-70
2020/12/05 09:52:59;;;;;;;8.90;6.47;;;20.10;46.00;;;;;;5063405;28;21040;-70
2020/12/05 09:55:25;;;;;;;9.53;5.67;;;20.10;46.10;;;;;;5058062;28;20493;-69
2020/12/05 09:57:51;;;;;;;7.33;6.63;;;20.10;46.10;;;;;;5053595;28;21031;-67
2020/12/05 10:00:18;;;;;;;10.03;5.97;;;20.10;46.00;;;;;;5036526;28;20528;-69
2020/12/05 10:02:44;;;;;;;8.30;6.63;;;20.10;46.10;;;;;;5030699;28;20499;-70
2020/12/05 10:05:10;;;;;;;7.37;4.97;;;20.10;46.10;;;;;;4998761;28;20497;-68
2020/12/05 10:07:37;;;;;;;6.00;5.50;;;20.10;46.10;;;;;;5024200;28;20917;-70
2020/12/05 10:10:03;;;;;;;7.63;5.90;;;20.10;46.00;;;;;;5056031;28;21000;-70
2020/12/05 10:12:29;;;;;;;5.23;4.73;;;20.20;46.00;;;;;;5042380;28;20530;-69
2020/12/05 10:14:55;;;;;;;6.43;5.80;;;20.20;46.00;;;;;;5010569;28;20984;-69
2020/12/05 10:17:22;;;;;;;8.20;6.90;;;20.20;45.80;;;;;;5038877;28;20582;-70
2020/12/05 10:19:48;;;;;;;6.90;6.20;;;20.20;45.90;;;;;;5035018;28;20486;-68
2020/12/05 10:22:14;;;;;;;6.47;5.87;;;20.10;45.90;;;;;;4996764;28;20479;-69
2020/12/05 10:24:40;;;;;;;5.60;5.00;;;20.10;45.90;;;;;;5049642;28;20486;-68
2020/12/05 10:27:06;;;;;;;6.47;5.87;;;20.10;46.00;;;;;;5038293;28;20487;-69
2020/12/05 10:29:32;;;;;;;6.47;5.70;;;20.10;46.10;;;;;;5038251;28;20486;-70
2020/12/05 10:31:58;;;;;;;8.27;7.43;;;20.10;46.10;;;;;;5049068;28;20535;-70
2020/12/05 10:34:25;;;;;;;6.20;5.60;;;20.10;46.20;;;;;;5038629;28;20582;-70
2020/12/05 10:36:53;;;;;;;6.53;5.87;;;20.10;46.20;;;;;;5038688;28;20953;-69
2020/12/05 10:39:19;;;;;;;7.70;6.23;;;20.10;46.20;;;;;;5032162;28;20501;-71
2020/12/05 10:41:48;;;;;;;5.83;5.30;;;20.10;46.00;;;;;;5013352;28;21018;-69
2020/12/05 10:44:14;;;;;;;7.07;5.77;;;20.10;46.00;;;;;;5007764;28;21066;-69
2020/12/05 10:46:40;;;;;;;6.30;5.70;;;20.20;46.10;;;;;;5058618;28;20481;-69
2020/12/05 10:49:06;;;;;;;5.80;5.20;;;20.20;46.10;;;;;;5060665;28;20477;-68
2020/12/05 10:51:33;;;;;;;6.30;5.67;;;20.20;46.10;;;;;;5050251;28;20497;-69
2020/12/05 10:53:59;;;;;;;6.37;5.30;;;20.10;46.00;;;;;;5053058;28;20492;-68
2020/12/05 10:56:25;;;;;;;6.30;5.70;;;20.10;46.10;;;;;;5038164;28;20483;-69
2020/12/05 10:58:51;;;;;;;5.97;5.47;;;20.10;46.00;;;;;;5048847;28;21122;-70
2020/12/05 11:01:17;;;;;;;6.47;5.87;;;20.10;46.20;;;;;;5053103;28;20489;-70
2020/12/05 11:03:43;;;;;;;5.13;4.63;;;20.10;46.40;;;;;;5067185;28;20513;-70
2020/12/05 11:06:09;;;;;;;6.40;5.50;;;20.10;46.30;;;;;;5067014;28;20480;-70
2020/12/05 11:08:36;;;;;;;7.17;6.00;;;20.00;46.30;;;;;;5077203;28;20493;-70
2020/12/05 11:11:03;;;;;;;5.87;5.37;;;20.00;46.30;;;;;;5051112;28;21008;-70
2020/12/05 11:13:29;;;;;;;5.20;4.80;;;20.10;46.30;;;;;;5045941;28;20481;-70
2020/12/05 11:15:55;;;;;;;6.37;5.80;;;20.10;46.40;;;;;;5064922;28;20488;-70
2020/12/05 11:18:21;;;;;;;7.70;5.67;;;20.10;46.20;;;;;;5062008;28;20477;-70
2020/12/05 11:20:47;;;;;;;6.50;5.53;;;20.10;46.10;;;;;;5043412;28;21004;-70
2020/12/05 11:23:13;;;;;;;6.60;5.87;;;20.10;46.10;;;;;;5030128;28;20501;-70
2020/12/05 11:25:40;;;;;;;5.10;4.53;;;20.10;46.20;;;;;;5012405;28;20543;-70
2020/12/05 11:28:06;;;;;;;6.80;6.20;;;20.10;46.10;;;;;;5057500;28;20486;-71
2020/12/05 11:30:32;;;;;;;6.10;5.10;;;20.10;46.10;;;;;;5043010;28;20818;-71
2020/12/05 11:32:58;;;;;;;6.93;5.50;;;20.10;46.20;;;;;;5039141;28;21412;-70
2020/12/05 11:35:24;;;;;;;9.20;4.90;;;20.10;46.20;;;;;;5031055;28;20494;-70
2020/12/05 11:37:50;;;;;;;5.30;4.90;;;20.10;46.20;;;;;;5055287;28;20473;-70
2020/12/05 11:40:16;;;;;;;6.97;4.90;;;20.10;46.10;;;;;;5044432;28;20469;-69
2020/12/05 11:42:43;;;;;;;6.00;5.50;;;20.10;46.20;;;;;;5031301;28;20520;-70
2020/12/05 11:45:09;;;;;;;4.93;4.43;;;20.20;46.30;;;;;;5045440;28;20571;-71
2020/12/05 11:47:35;;;;;;;5.90;4.97;;;20.10;46.10;;;;;;5041105;28;20477;-70
2020/12/05 11:50:01;;;;;;;6.00;5.40;;;20.20;46.40;;;;;;5037306;28;20482;-69
2020/12/05 11:52:27;;;;;;;4.70;4.27;;;20.10;46.40;;;;;;5043743;28;20479;-69
2020/12/05 11:54:53;;;;;;;6.70;4.63;;;20.10;46.30;;;;;;5050499;28;20911;-70
2020/12/05 11:57:20;;;;;;;4.73;4.33;;;20.10;46.50;;;;;;5040091;28;20493;-70
2020/12/05 11:59:46;;;;;;;4.83;4.53;;;20.10;46.40;;;;;;5010569;28;21059;-70
2020/12/05 12:02:12;;;;;;;4.90;4.50;;;20.10;46.30;;;;;;5045921;28;20483;-70
2020/12/05 12:04:39;;;;;;;4.97;4.57;;;20.20;46.40;;;;;;5027997;28;20529;-69
2020/12/05 12:07:05;;;;;;;4.57;4.23;;;20.20;46.20;;;;;;5044816;28;20486;-69
2020/12/05 12:09:31;;;;;;;5.20;4.40;;;20.20;46.20;;;;;;5049975;28;20536;-69
2020/12/05 12:11:57;;;;;;;5.03;4.53;;;20.20;46.20;;;;;;5038381;28;21675;-68
2020/12/05 12:14:23;;;;;;;5.03;4.63;;;20.20;46.20;;;;;;5029335;28;20548;-69
2020/12/05 12:16:50;;;;;;;4.50;4.10;;;20.20;46.10;;;;;;5049699;28;20619;-69
2020/12/05 12:19:16;;;;;;;5.10;4.33;;;20.30;46.20;;;;;;5034985;28;20492;-69
2020/12/05 12:21:42;;;;;;;5.33;4.87;;;20.20;46.20;;;;;;5050017;28;20473;-69
2020/12/05 12:24:08;;;;;;;3.83;3.60;;;20.20;46.30;;;;;;5046277;28;20614;-69
2020/12/05 12:26:34;;;;;;;3.73;3.50;;;20.20;46.40;;;;;;5050347;28;20478;-69
2020/12/05 12:29:00;;;;;;;4.13;3.87;;;20.20;46.30;;;;;;5038888;28;21066;-69
2020/12/05 12:31:26;;;;;;;4.93;4.53;;;20.20;46.40;;;;;;5042194;28;20494;-70
2020/12/05 12:33:53;;;;;;;3.93;3.63;;;20.10;46.40;;;;;;5044717;28;20489;-69
2020/12/05 12:36:20;;;;;;;4.53;4.13;;;20.10;46.50;;;;;;5020121;28;20896;-70
2020/12/05 12:38:46;;;;;;;4.60;3.40;;;20.10;46.60;;;;;;5051073;28;20482;-70
2020/12/05 12:41:14;;;;;;;5.20;4.80;;;20.00;46.60;;;;;;5051420;28;20481;-69
2020/12/05 12:43:40;;;;;;;5.63;5.10;;;20.10;46.70;;;;;;5046514;28;20488;-69
2020/12/05 12:46:06;;;;;;;4.80;4.40;;;20.10;46.60;;;;;;5048274;28;20997;-68
2020/12/05 12:48:39;;;;;;;4.17;3.83;;;20.10;46.60;;;;;;5039132;28;20578;-69